createdAt,value
2018-06-16T00:01:29.587Z,31.93
2018-06-16T00:03:58.560Z,23.67
2018-06-16T00:06:27.620Z,27.17
2018-06-16T00:08:56.612Z,21.67
2018-06-16T00:11:25.618Z,17.13
2018-06-16T00:13:54.705Z,19.87
2018-06-16T00:16:23.668Z,21.67
2018-06-16T00:18:52.651Z,17.70
2018-06-16T00:21:21.717Z,20.67
2018-06-16T00:23:50.663Z,19.27
2018-06-16T00:26:19.609Z,20.87
2018-06-16T00:28:48.642Z,27.30
2018-06-16T00:31:17.593Z,25.90
2018-06-16T00:33:46.552Z,24.93
2018-06-16T00:36:15.501Z,18.40
2018-06-16T00:38:44.497Z,21.93
2018-06-16T00:41:13.448Z,16.10
2018-06-16T00:43:42.469Z,19.87
2018-06-16T00:46:11.522Z,15.23
2018-06-16T00:48:40.523Z,15.93
2018-06-16T00:51:09.504Z,17.00
2018-06-16T00:53:38.509Z,20.10
2018-06-16T00:56:07.553Z,17.93
2018-06-16T00:58:36.514Z,19.53
2018-06-16T01:01:05.513Z,22.70
2018-06-16T01:03:34.475Z,20.07
2018-06-16T01:06:03.421Z,18.00
2018-06-16T01:08:32.364Z,23.93
2018-06-16T01:11:01.369Z,21.53
2018-06-16T01:13:30.392Z,23.73
2018-06-16T01:15:59.358Z,21.47
2018-06-16T01:18:28.507Z,19.80
2018-06-16T01:20:58.356Z,23.53
2018-06-16T01:23:27.316Z,23.03
2018-06-16T01:25:56.380Z,43.23
2018-06-16T01:28:25.453Z,19.77
2018-06-16T01:30:54.460Z,16.87
2018-06-16T01:33:23.556Z,26.43
2018-06-16T01:35:52.561Z,26.20
2018-06-16T01:38:22.044Z,24.37
2018-06-16T01:40:50.984Z,22.70
2018-06-16T01:43:19.940Z,27.20
2018-06-16T01:45:48.876Z,25.10
2018-06-16T01:48:17.827Z,22.07
2018-06-16T01:50:46.824Z,23.67
2018-06-16T01:53:15.770Z,28.77
2018-06-16T01:55:44.704Z,28.67
2018-06-16T01:58:13.731Z,32.43
2018-06-16T02:00:42.736Z,31.97
2018-06-16T02:03:11.822Z,28.00
2018-06-16T02:05:40.905Z,28.17
2018-06-16T02:08:09.924Z,29.27
2018-06-16T02:10:38.981Z,42.10
2018-06-16T02:13:07.937Z,42.53
2018-06-16T02:15:36.940Z,42.70
2018-06-16T02:18:05.943Z,34.57
2018-06-16T02:20:35.009Z,38.13
2018-06-16T02:23:04.026Z,38.60
2018-06-16T02:25:33.101Z,33.13
2018-06-16T02:28:02.064Z,28.67
2018-06-16T02:30:31.004Z,33.00
2018-06-16T02:32:59.969Z,37.93
2018-06-16T02:35:29.049Z,32.53
2018-06-16T02:37:58.138Z,32.63
2018-06-16T02:40:27.101Z,31.83
2018-06-16T02:42:56.297Z,40.93
2018-06-16T02:45:25.253Z,36.10
2018-06-16T02:47:54.200Z,37.37
2018-06-16T02:50:23.347Z,34.50
2018-06-16T02:52:52.296Z,34.50
2018-06-16T02:55:21.297Z,30.53
2018-06-16T02:57:50.292Z,33.20
2018-06-16T03:00:19.311Z,42.83
2018-06-16T03:02:48.239Z,32.83
2018-06-16T03:05:17.381Z,26.27
2018-06-16T03:07:46.332Z,26.90
2018-06-16T03:10:15.284Z,26.90
2018-06-16T03:12:44.363Z,36.50
2018-06-16T03:15:13.505Z,26.47
2018-06-16T03:17:42.492Z,24.37
2018-06-16T03:20:11.516Z,24.40
2018-06-16T03:22:40.537Z,19.77
2018-06-16T03:25:09.496Z,21.73
2018-06-16T03:27:38.557Z,25.57
2018-06-16T03:30:07.603Z,26.30
2018-06-16T03:32:36.597Z,36.10
2018-06-16T03:35:05.560Z,38.80
2018-06-16T03:37:34.515Z,32.33
2018-06-16T03:40:03.568Z,33.00
2018-06-16T03:42:32.504Z,32.57
2018-06-16T03:45:01.593Z,41.40
2018-06-16T03:47:30.684Z,46.13
2018-06-16T03:49:59.704Z,90.27
2018-06-16T03:52:28.783Z,99.57
2018-06-16T03:54:58.005Z,73.50
2018-06-16T03:57:27.039Z,128.23
2018-06-16T03:59:56.093Z,97.73
2018-06-16T04:02:25.100Z,92.20
2018-06-16T04:04:54.113Z,36.53
2018-06-16T04:07:23.062Z,62.77
2018-06-16T04:09:52.082Z,54.60
2018-06-16T04:12:21.404Z,57.80
2018-06-16T04:14:50.464Z,87.70
2018-06-16T04:17:20.493Z,54.50
2018-06-16T04:19:51.780Z,33.10
2018-06-16T04:22:21.212Z,34.83
2018-06-16T04:24:50.232Z,27.43
2018-06-16T04:27:19.216Z,27.40
2018-06-16T04:29:48.237Z,54.33
2018-06-16T04:32:17.179Z,69.13
2018-06-16T04:34:46.302Z,60.30
2018-06-16T04:37:15.424Z,82.57
2018-06-16T04:39:44.412Z,69.33
2018-06-16T04:42:13.400Z,36.20
2018-06-16T04:44:42.426Z,36.17
2018-06-16T04:47:11.380Z,22.97
2018-06-16T04:49:40.383Z,41.67
2018-06-16T04:52:09.402Z,32.47
2018-06-16T04:54:38.449Z,25.87
2018-06-16T04:57:07.496Z,30.53
2018-06-16T04:59:36.496Z,63.97
2018-06-16T05:02:05.585Z,33.70
2018-06-16T05:04:34.560Z,48.07
2018-06-16T05:07:03.515Z,42.33
2018-06-16T05:09:32.551Z,77.43
2018-06-16T05:12:01.619Z,73.93
2018-06-16T05:14:30.597Z,71.30
2018-06-16T05:16:59.620Z,99.63
2018-06-16T05:19:28.696Z,79.67
2018-06-16T05:21:57.800Z,72.17
2018-06-16T05:24:26.812Z,81.57
2018-06-16T05:26:55.844Z,83.83
2018-06-16T05:29:24.808Z,58.10
2018-06-16T05:31:53.756Z,48.63
2018-06-16T05:34:22.753Z,42.60
2018-06-16T05:36:51.926Z,45.77
2018-06-16T05:39:21.011Z,57.33
2018-06-16T05:41:50.090Z,50.80
2018-06-16T05:44:19.124Z,41.47
2018-06-16T05:46:48.217Z,38.07
2018-06-16T05:49:17.238Z,44.40
2018-06-16T05:51:46.193Z,37.00
2018-06-16T05:54:15.269Z,39.87
2018-06-16T05:56:44.239Z,35.47
2018-06-16T05:59:13.244Z,37.07
2018-06-16T06:01:42.272Z,58.60
2018-06-16T06:04:11.263Z,44.50
2018-06-16T06:06:40.305Z,38.20
2018-06-16T06:09:10.435Z,22.87
2018-06-16T06:11:39.671Z,27.33
2018-06-16T06:14:09.596Z,31.63
2018-06-16T06:16:39.229Z,25.00
2018-06-16T06:19:08.209Z,31.90
2018-06-16T06:21:37.214Z,26.73
2018-06-16T06:24:06.241Z,31.67
2018-06-16T06:26:35.377Z,32.00
2018-06-16T06:29:04.405Z,31.63
2018-06-16T06:31:33.363Z,29.40
2018-06-16T06:34:02.384Z,32.60
2018-06-16T06:36:31.404Z,29.83
2018-06-16T06:39:00.413Z,33.73
2018-06-16T06:41:29.394Z,35.80
2018-06-16T06:43:58.364Z,34.50
2018-06-16T06:46:27.473Z,27.97
2018-06-16T06:48:56.441Z,35.40
2018-06-16T06:51:25.444Z,32.97
2018-06-16T06:53:54.534Z,38.70
2018-06-16T06:56:23.557Z,36.73
2018-06-16T06:58:52.597Z,32.50
2018-06-16T07:01:21.556Z,34.67
2018-06-16T07:03:50.639Z,27.80
2018-06-16T07:06:19.690Z,21.77
2018-06-16T07:08:48.701Z,19.17
2018-06-16T07:11:17.787Z,24.13
2018-06-16T07:13:46.865Z,21.17
2018-06-16T07:16:15.832Z,22.53
2018-06-16T07:18:44.888Z,16.70
2018-06-16T07:21:13.908Z,15.97
2018-06-16T07:23:42.917Z,17.00
2018-06-16T07:26:11.920Z,15.00
2018-06-16T07:28:40.890Z,18.17
2018-06-16T07:31:09.836Z,18.13
2018-06-16T07:33:38.920Z,13.43
2018-06-16T07:36:07.909Z,17.20
2018-06-16T07:38:36.905Z,14.20
2018-06-16T07:41:05.857Z,13.70
2018-06-16T07:43:34.932Z,14.67
2018-06-16T07:46:03.894Z,18.53
2018-06-16T07:48:32.951Z,16.47
2018-06-16T07:51:01.953Z,16.20
2018-06-16T07:53:30.990Z,15.77
2018-06-16T07:55:59.980Z,16.10
2018-06-16T07:58:29.061Z,16.10
2018-06-16T08:00:58.045Z,21.43
2018-06-16T08:03:27.000Z,22.93
2018-06-16T08:05:55.982Z,25.53
2018-06-16T08:08:25.040Z,18.27
2018-06-16T08:10:54.017Z,20.93
2018-06-16T08:13:23.078Z,27.70
2018-06-16T08:15:52.110Z,19.33
2018-06-16T08:18:21.149Z,18.07
2018-06-16T08:20:50.202Z,10.00
2018-06-16T08:23:19.204Z,8.87
2018-06-16T08:25:48.236Z,5.80
2018-06-16T08:28:17.255Z,5.73
2018-06-16T08:30:46.235Z,9.90
2018-06-16T08:33:15.165Z,8.30
2018-06-16T08:35:44.220Z,14.90
2018-06-16T08:38:13.313Z,18.03
2018-06-16T08:40:42.275Z,8.43
2018-06-16T08:43:11.233Z,11.37
2018-06-16T08:45:40.304Z,13.43
2018-06-16T08:48:09.297Z,10.43
2018-06-16T08:50:38.322Z,9.70
2018-06-16T08:53:07.421Z,13.50
2018-06-16T08:55:36.480Z,11.10
2018-06-16T08:58:05.433Z,10.30
2018-06-16T09:00:34.384Z,12.37
2018-06-16T09:03:03.340Z,11.10
2018-06-16T09:05:32.337Z,8.00
2018-06-16T09:08:01.352Z,11.53
2018-06-16T09:10:30.529Z,14.07
2018-06-16T09:12:59.497Z,17.43
2018-06-16T09:15:28.577Z,15.20
2018-06-16T09:17:57.687Z,20.00
2018-06-16T09:20:26.660Z,8.67
2018-06-16T09:22:55.841Z,16.83
2018-06-16T09:25:24.845Z,7.90
2018-06-16T09:27:53.938Z,9.13
2018-06-16T09:30:22.884Z,11.53
2018-06-16T09:32:51.919Z,10.27
2018-06-16T09:35:20.920Z,10.63
2018-06-16T09:37:49.949Z,8.53
2018-06-16T09:40:18.888Z,9.93
2018-06-16T09:42:47.912Z,13.70
2018-06-16T09:45:16.856Z,7.40
2018-06-16T09:47:45.973Z,11.23
2018-06-16T09:50:14.925Z,9.03
2018-06-16T09:52:43.965Z,10.40
2018-06-16T09:55:12.924Z,9.03
2018-06-16T09:57:41.860Z,7.30
2018-06-16T10:00:14.883Z,7.43
2018-06-16T10:02:43.833Z,12.33
2018-06-16T10:05:12.861Z,7.00
2018-06-16T10:07:41.831Z,8.30
2018-06-16T10:10:10.862Z,9.10
2018-06-16T10:12:39.936Z,11.83
2018-06-16T10:15:08.976Z,6.73
2018-06-16T10:17:37.931Z,6.00
2018-06-16T10:20:06.880Z,8.73
2018-06-16T10:22:35.864Z,10.00
2018-06-16T10:25:04.857Z,7.00
2018-06-16T10:27:33.920Z,7.97
2018-06-16T10:30:02.932Z,10.30
2018-06-16T10:32:32.003Z,9.70
2018-06-16T10:35:00.973Z,9.33
2018-06-16T10:37:29.956Z,11.13
2018-06-16T10:39:58.940Z,9.13
2018-06-16T10:42:27.916Z,8.77
2018-06-16T10:44:57.020Z,7.07
2018-06-16T10:47:26.040Z,7.20
2018-06-16T10:49:55.045Z,8.20
2018-06-16T10:52:24.092Z,7.60
2018-06-16T10:54:53.181Z,7.33
2018-06-16T10:57:22.229Z,10.00
2018-06-16T10:59:51.177Z,8.10
2018-06-16T11:02:20.145Z,8.47
2018-06-16T11:04:49.263Z,6.63
2018-06-16T11:07:18.307Z,5.90
2018-06-16T11:09:47.349Z,5.33
2018-06-16T11:12:16.432Z,6.83
2018-06-16T11:14:45.379Z,6.10
2018-06-16T11:17:14.515Z,7.23
2018-06-16T11:19:43.527Z,10.60
2018-06-16T11:22:12.463Z,17.73
2018-06-16T11:24:41.476Z,10.30
2018-06-16T11:27:10.411Z,8.60
2018-06-16T11:29:39.376Z,7.20
2018-06-16T11:32:08.335Z,9.47
2018-06-16T11:34:37.368Z,9.27
2018-06-16T11:37:06.333Z,16.00
2018-06-16T11:39:35.355Z,9.87
2018-06-16T11:42:04.427Z,9.40
2018-06-16T11:44:33.430Z,11.30
2018-06-16T11:47:02.392Z,7.40
2018-06-16T11:49:31.321Z,9.00
2018-06-16T11:52:00.337Z,8.90
2018-06-16T11:54:29.385Z,10.00
2018-06-16T11:56:58.455Z,17.80
2018-06-16T11:59:27.456Z,10.47
2018-06-16T12:01:56.488Z,11.40
2018-06-16T12:04:25.557Z,16.70
2018-06-16T12:06:54.507Z,15.40
2018-06-16T12:09:23.513Z,8.93
2018-06-16T12:11:52.448Z,9.73
2018-06-16T12:14:21.407Z,11.13
2018-06-16T12:16:50.368Z,12.90
2018-06-16T12:19:19.448Z,11.70
2018-06-16T12:21:48.451Z,12.40
2018-06-16T12:24:17.451Z,21.00
2018-06-16T12:26:46.431Z,13.47
2018-06-16T12:29:15.437Z,9.83
2018-06-16T12:31:44.404Z,12.70
2018-06-16T12:34:13.342Z,14.03
2018-06-16T12:36:42.336Z,13.90
2018-06-16T12:39:12.030Z,11.80
2018-06-16T12:41:41.195Z,11.13
2018-06-16T12:44:10.223Z,11.00
2018-06-16T12:46:39.151Z,12.07
2018-06-16T12:49:08.132Z,15.00
2018-06-16T12:51:37.186Z,15.07
2018-06-16T12:54:06.286Z,17.20
2018-06-16T12:56:35.296Z,29.77
2018-06-16T12:59:04.263Z,21.40
2018-06-16T13:01:33.225Z,20.30
2018-06-16T13:04:02.297Z,22.30
2018-06-16T13:06:31.396Z,12.67
2018-06-16T13:09:00.413Z,16.13
2018-06-16T13:11:29.477Z,20.43
2018-06-16T13:13:58.495Z,30.53
2018-06-16T13:16:27.489Z,35.60
2018-06-16T13:18:56.929Z,38.00
2018-06-16T13:21:26.312Z,27.30
2018-06-16T13:23:55.269Z,15.97
2018-06-16T13:26:24.293Z,13.83
2018-06-16T13:28:53.338Z,31.73
2018-06-16T13:31:22.381Z,18.13
2018-06-16T13:33:51.426Z,22.60
2018-06-16T13:36:20.517Z,27.30
2018-06-16T13:38:49.563Z,13.00
2018-06-16T13:41:18.603Z,15.60
2018-06-16T13:43:47.556Z,21.30
2018-06-16T13:46:16.530Z,14.33
2018-06-16T13:48:45.548Z,14.10
2018-06-16T13:51:14.581Z,18.37
2018-06-16T13:53:43.596Z,13.70
2018-06-16T13:56:13.317Z,14.50
2018-06-16T13:58:42.407Z,19.93
2018-06-16T14:01:11.557Z,20.47
2018-06-16T14:03:40.612Z,16.90
2018-06-16T14:06:09.618Z,19.40
2018-06-16T14:08:38.739Z,10.37
2018-06-16T14:11:07.735Z,19.30
2018-06-16T14:13:36.762Z,24.63
2018-06-16T14:16:05.808Z,20.27
2018-06-16T14:18:34.835Z,9.50
2018-06-16T14:21:03.813Z,13.47
2018-06-16T14:23:32.792Z,10.60
2018-06-16T14:26:01.786Z,10.27
2018-06-16T14:28:30.817Z,17.50
2018-06-16T14:31:00.004Z,19.97
2018-06-16T14:33:29.030Z,20.13
2018-06-16T14:35:58.041Z,15.37
2018-06-16T14:38:27.053Z,28.27
2018-06-16T14:40:56.084Z,18.57
2018-06-16T14:43:25.043Z,15.00
2018-06-16T14:45:54.109Z,21.40
2018-06-16T14:48:23.068Z,14.50
2018-06-16T14:50:52.146Z,13.93
2018-06-16T14:53:21.155Z,10.80
2018-06-16T14:55:50.192Z,12.70
2018-06-16T14:58:19.112Z,11.60
2018-06-16T15:00:48.102Z,12.80
2018-06-16T15:03:17.165Z,13.17
2018-06-16T15:05:46.152Z,14.60
2018-06-16T15:08:15.172Z,11.80
2018-06-16T15:10:44.205Z,22.33
2018-06-16T15:13:13.204Z,18.40
2018-06-16T15:15:42.257Z,13.30
2018-06-16T15:18:11.504Z,16.83
2018-06-16T15:20:40.597Z,17.60
2018-06-16T15:23:09.548Z,15.00
2018-06-16T15:25:38.884Z,15.40
2018-06-16T15:28:07.851Z,15.57
2018-06-16T15:30:36.950Z,17.00
2018-06-16T15:33:05.984Z,18.57
2018-06-16T15:35:35.026Z,17.07
2018-06-16T15:38:04.040Z,7.80
2018-06-16T15:40:33.028Z,11.90
2018-06-16T15:43:02.098Z,13.23
2018-06-16T15:45:31.056Z,8.63
2018-06-16T15:48:00.001Z,7.10
2018-06-16T15:50:28.977Z,14.30
2018-06-16T15:52:57.935Z,13.43
2018-06-16T15:55:26.893Z,10.87
2018-06-16T15:57:55.850Z,10.47
2018-06-16T16:00:24.879Z,21.97
2018-06-16T16:02:54.560Z,12.00
2018-06-16T16:05:23.601Z,8.83
2018-06-16T16:07:52.645Z,14.23
2018-06-16T16:10:22.014Z,10.67
2018-06-16T16:12:50.993Z,14.10
2018-06-16T16:15:20.021Z,7.40
2018-06-16T16:17:49.149Z,13.53
2018-06-16T16:20:18.250Z,11.90
2018-06-16T16:22:47.212Z,16.97
2018-06-16T16:25:16.249Z,8.30
2018-06-16T16:27:45.455Z,12.70
2018-06-16T16:30:14.423Z,10.83
2018-06-16T16:32:43.393Z,18.70
2018-06-16T16:35:12.481Z,13.80
2018-06-16T16:37:41.474Z,13.63
2018-06-16T16:40:10.511Z,11.40
2018-06-16T16:42:39.528Z,21.50
2018-06-16T16:45:08.763Z,9.03
2018-06-16T16:47:37.824Z,15.13
2018-06-16T16:50:06.829Z,18.00
2018-06-16T16:52:35.827Z,15.77
2018-06-16T16:55:04.781Z,11.70
2018-06-16T16:57:33.860Z,12.03
2018-06-16T17:00:02.821Z,10.30
2018-06-16T17:02:31.848Z,25.27
2018-06-16T17:05:00.877Z,17.53
2018-06-16T17:07:29.910Z,16.80
2018-06-16T17:09:58.869Z,16.47
2018-06-16T17:12:27.923Z,19.20
2018-06-16T17:14:56.938Z,28.53
2018-06-16T17:17:25.985Z,15.20
2018-06-16T17:19:54.948Z,14.57
2018-06-16T17:22:23.961Z,12.53
2018-06-16T17:24:52.981Z,17.67
2018-06-16T17:27:22.035Z,17.87
2018-06-16T17:29:51.090Z,14.67
2018-06-16T17:32:20.140Z,18.70
2018-06-16T17:34:49.182Z,15.60
2018-06-16T17:37:18.151Z,16.30
2018-06-16T17:39:47.088Z,17.97
2018-06-16T17:42:16.059Z,14.87
2018-06-16T17:44:45.073Z,12.57
2018-06-16T17:47:14.176Z,18.07
2018-06-16T17:49:43.228Z,17.13
2018-06-16T17:52:12.329Z,21.40
2018-06-16T17:54:41.280Z,17.67
2018-06-16T17:57:10.259Z,31.57
2018-06-16T17:59:39.248Z,21.67
2018-06-16T18:02:08.504Z,15.17
2018-06-16T18:04:37.505Z,15.07
2018-06-16T18:07:06.448Z,19.23
2018-06-16T18:09:36.175Z,22.50
2018-06-16T18:12:05.825Z,21.93
2018-06-16T18:14:35.464Z,19.57
2018-06-16T18:17:05.126Z,18.90
2018-06-16T18:19:34.780Z,16.60
2018-06-16T18:22:04.591Z,12.30
2018-06-16T18:24:34.238Z,20.60
2018-06-16T18:27:04.801Z,18.20
2018-06-16T18:29:34.436Z,17.33
2018-06-16T18:32:04.225Z,19.40
2018-06-16T18:34:33.925Z,20.40
2018-06-16T18:37:03.673Z,27.17
2018-06-16T18:39:33.386Z,33.20
2018-06-16T18:42:03.605Z,38.80
2018-06-16T18:44:33.830Z,21.80
2018-06-16T18:47:04.614Z,26.07
2018-06-16T18:49:34.378Z,35.63
2018-06-16T18:52:04.030Z,20.07
2018-06-16T18:54:33.759Z,29.40
2018-06-16T18:57:03.409Z,27.30
2018-06-16T18:59:33.111Z,25.17
2018-06-16T19:02:02.788Z,20.10
2018-06-16T19:04:33.283Z,22.00
2018-06-16T19:07:02.927Z,30.57
2018-06-16T19:09:34.099Z,27.13
2018-06-16T19:12:03.400Z,23.17
2018-06-16T19:14:32.542Z,23.03
2018-06-16T19:17:01.530Z,36.33
2018-06-16T19:19:30.774Z,17.30
2018-06-16T19:21:59.767Z,27.40
2018-06-16T19:24:28.755Z,20.83
2018-06-16T19:26:57.760Z,25.10
2018-06-16T19:29:26.764Z,21.53
2018-06-16T19:31:55.791Z,21.50
2018-06-16T19:34:24.739Z,24.20
2018-06-16T19:36:53.728Z,33.37
2018-06-16T19:39:22.769Z,23.87
2018-06-16T19:41:51.750Z,23.83
2018-06-16T19:44:20.699Z,28.57
2018-06-16T19:46:49.685Z,25.83
2018-06-16T19:49:18.651Z,21.10
2018-06-16T19:51:47.688Z,17.53
2018-06-16T19:54:16.666Z,27.43
2018-06-16T19:56:45.662Z,28.30
2018-06-16T19:59:14.644Z,20.23
2018-06-16T20:01:43.636Z,21.90
2018-06-16T20:04:13.056Z,22.30
2018-06-16T20:06:42.088Z,26.27
2018-06-16T20:09:11.107Z,23.80
2018-06-16T20:11:40.103Z,23.77
2018-06-16T20:14:09.090Z,29.20
2018-06-16T20:16:38.055Z,23.80
2018-06-16T20:19:07.207Z,23.27
2018-06-16T20:21:36.204Z,30.60
2018-06-16T20:24:05.169Z,36.23
2018-06-16T20:26:34.156Z,38.80
2018-06-16T20:29:03.130Z,29.27
2018-06-16T20:31:32.177Z,33.07
2018-06-16T20:34:01.207Z,37.80
2018-06-16T20:36:30.194Z,29.33
2018-06-16T20:38:59.184Z,42.10
2018-06-16T20:41:28.171Z,28.77
2018-06-16T20:43:57.160Z,43.40
2018-06-16T20:46:26.222Z,32.73
2018-06-16T20:48:55.207Z,38.13
2018-06-16T20:51:24.191Z,30.93
2018-06-16T20:53:53.177Z,24.03
2018-06-16T20:56:22.179Z,25.17
2018-06-16T20:58:51.246Z,31.33
2018-06-16T21:01:20.247Z,37.50
2018-06-16T21:03:49.287Z,31.17
2018-06-16T21:06:18.268Z,30.77
2018-06-16T21:08:47.322Z,28.40
2018-06-16T21:11:16.271Z,35.80
2018-06-16T21:13:45.229Z,37.07
2018-06-16T21:16:14.215Z,39.10
2018-06-16T21:18:43.195Z,32.47
2018-06-16T21:21:12.212Z,41.40
2018-06-16T21:23:41.276Z,42.27
2018-06-16T21:26:10.236Z,40.03
2018-06-16T21:28:39.212Z,35.67
2018-06-16T21:31:08.318Z,41.13
2018-06-16T21:33:37.317Z,45.17
2018-06-16T21:36:06.480Z,50.80
2018-06-16T21:38:35.506Z,72.23
2018-06-16T21:41:04.494Z,44.97
2018-06-16T21:43:33.513Z,43.70
2018-06-16T21:46:02.504Z,40.47
2018-06-16T21:48:31.540Z,39.90
2018-06-16T21:51:00.522Z,41.13
2018-06-16T21:53:29.491Z,39.37
2018-06-16T21:55:58.452Z,51.70
2018-06-16T21:58:27.492Z,43.73
2018-06-16T22:00:56.470Z,37.83
2018-06-16T22:03:25.413Z,34.70
2018-06-16T22:05:54.383Z,31.83
2018-06-16T22:08:28.451Z,31.53
2018-06-16T22:10:57.422Z,31.53
2018-06-16T22:13:26.374Z,34.20
2018-06-16T22:15:55.388Z,39.90
2018-06-16T22:18:24.734Z,33.00
2018-06-16T22:20:53.726Z,29.37
2018-06-16T22:23:22.680Z,34.40
2018-06-16T22:25:51.636Z,37.13
2018-06-16T22:28:20.622Z,33.73
2018-06-16T22:30:49.591Z,26.93
2018-06-16T22:33:18.564Z,38.37
2018-06-16T22:35:47.538Z,26.37
2018-06-16T22:38:16.567Z,31.67
2018-06-16T22:40:45.535Z,27.93
2018-06-16T22:43:14.535Z,30.60
2018-06-16T22:45:43.517Z,27.40
2018-06-16T22:48:12.492Z,27.10
2018-06-16T22:50:41.470Z,23.53
2018-06-16T22:53:10.423Z,21.60
2018-06-16T22:55:39.385Z,15.27
2018-06-16T22:58:08.337Z,18.63
2018-06-16T23:00:37.309Z,19.53
2018-06-16T23:03:06.312Z,13.50
2018-06-16T23:05:35.358Z,8.43
2018-06-16T23:08:04.307Z,10.80
2018-06-16T23:10:33.282Z,20.57
2018-06-16T23:13:02.274Z,19.53
2018-06-16T23:15:31.278Z,10.20
2018-06-16T23:18:00.235Z,8.93
2018-06-16T23:20:29.221Z,16.53
2018-06-16T23:22:58.211Z,13.70
2018-06-16T23:25:27.225Z,19.27
2018-06-16T23:27:56.270Z,23.87
2018-06-16T23:30:25.252Z,27.33
2018-06-16T23:32:54.311Z,26.17
2018-06-16T23:35:23.272Z,26.10
2018-06-16T23:37:52.241Z,27.43
2018-06-16T23:40:21.206Z,34.63
2018-06-16T23:42:50.143Z,35.50
2018-06-16T23:45:19.096Z,29.03
2018-06-16T23:47:48.056Z,28.90
2018-06-16T23:50:16.991Z,34.47
2018-06-16T23:52:45.958Z,30.97
2018-06-16T23:55:15.024Z,37.33
2018-06-16T23:57:43.986Z,24.90
